Time;durP1;ratioP1;P1;durP2;ratioP2;P2;SDS_P1;SDS_P2;PMS_P1;PMS_P2;Temp;Humidity;BMP_temperature;BMP_pressure;BME280_temperature;BME280_humidity;BME280_pressure;Samples;Min_cycle;Max_cycle;Signal;HPM_P1;HPM_P2
2021/06/16 00:00:07;;;;;;;11.95;3.40;;;;;;;;;;4993336;28;20187;-67
2021/06/16 00:02:33;;;;;;;8.38;3.63;;;;;;;;;;5004902;28;20198;-67
2021/06/16 00:04:58;;;;;;;12.27;3.55;;;;;;;;;;4995900;28;20209;-67
2021/06/16 00:07:24;;;;;;;8.55;4.07;;;;;;;;;;5005079;28;20605;-67
2021/06/16 00:09:49;;;;;;;9.52;3.70;;;;;;;;;;5000171;28;28267;-67
2021/06/16 00:12:15;;;;;;;10.70;4.22;;;;;;;;;;5008607;28;20182;-67
2021/06/16 00:14:40;;;;;;;10.32;3.90;;;;;;;;;;5002748;28;20213;-67
2021/06/16 00:17:06;;;;;;;7.85;4.05;;;;;;;;;;4997653;28;20265;-68
2021/06/16 00:19:31;;;;;;;11.68;3.50;;;;;;;;;;5007622;28;20732;-67
2021/06/16 00:21:57;;;;;;;9.20;3.90;;;;;;;;;;4995567;28;20191;-67
2021/06/16 00:24:22;;;;;;;9.77;3.90;;;;;;;;;;5007809;28;20596;-67
2021/06/16 00:26:48;;;;;;;9.23;3.80;;;;;;;;;;4997097;28;20182;-67
2021/06/16 00:29:15;;;;;;;5.40;3.75;;;;;;;;;;5006427;28;20175;-67
2021/06/16 00:31:40;;;;;;;14.30;4.13;;;;;;;;;;5000937;28;20201;-67
2021/06/16 00:34:06;;;;;;;9.38;3.97;;;;;;;;;;5002941;28;20263;-67
2021/06/16 00:36:31;;;;;;;10.40;4.15;;;;;;;;;;4998940;28;20256;-67
2021/06/16 00:38:58;;;;;;;11.38;4.28;;;;;;;;;;5006751;28;20607;-67
2021/06/16 00:41:23;;;;;;;10.07;4.32;;;;;;;;;;4999794;28;20239;-67
2021/06/16 00:43:49;;;;;;;14.52;4.85;;;;;;;;;;5006292;28;20651;-67
2021/06/16 00:46:14;;;;;;;11.18;4.20;;;;;;;;;;5007377;28;20714;-67
2021/06/16 00:48:40;;;;;;;13.45;4.50;;;;;;;;;;4996324;28;20242;-68
2021/06/16 00:51:05;;;;;;;10.85;4.78;;;;;;;;;;5007030;28;20647;-67
2021/06/16 00:53:30;;;;;;;8.65;4.22;;;;;;;;;;4994908;28;20245;-66
2021/06/16 00:55:56;;;;;;;7.40;4.30;;;;;;;;;;5000244;28;20250;-67
2021/06/16 00:58:22;;;;;;;10.95;4.47;;;;;;;;;;5000351;28;20193;-67
2021/06/16 01:01:14;;;;;;;11.15;4.60;;;;;;;;;;5004594;28;20199;-67
2021/06/16 01:03:43;;;;;;;13.48;4.88;;;;;;;;;;4998303;28;20218;-66
2021/06/16 01:06:21;;;;;;;10.73;4.55;;;;;;;;;;5005988;28;20632;-66
2021/06/16 01:09:19;;;;;;;12.23;4.78;;;;;;;;;;4998285;28;20255;-66
2021/06/16 01:12:07;;;;;;;11.88;4.80;;;;;;;;;;5007950;28;20214;-66
2021/06/16 01:14:43;;;;;;;18.15;5.55;;;;;;;;;;4986990;28;20267;-67
2021/06/16 01:17:10;;;;;;;12.32;4.88;;;;;;;;;;5006381;28;20214;-67
2021/06/16 01:19:52;;;;;;;13.00;4.78;;;;;;;;;;4999873;28;20182;-67
2021/06/16 01:22:26;;;;;;;12.80;4.93;;;;;;;;;;5003688;28;20277;-67
2021/06/16 01:24:54;;;;;;;14.55;5.25;;;;;;;;;;4999555;28;20230;-66
2021/06/16 01:27:21;;;;;;;12.60;4.70;;;;;;;;;;4996182;28;20667;-66
2021/06/16 01:29:47;;;;;;;13.90;5.75;;;;;;;;;;4996354;28;20211;-66
2021/06/16 01:32:13;;;;;;;12.27;5.10;;;;;;;;;;4997883;28;20194;-66
2021/06/16 01:34:38;;;;;;;11.18;6.05;;;;;;;;;;4994780;28;20286;-67
2021/06/16 01:37:05;;;;;;;9.10;5.30;;;;;;;;;;5005117;28;20253;-67
2021/06/16 01:39:35;;;;;;;16.08;5.65;;;;;;;;;;4998436;28;20655;-67
2021/06/16 01:42:09;;;;;;;9.85;5.32;;;;;;;;;;5002545;28;20266;-68
2021/06/16 01:44:35;;;;;;;14.68;5.30;;;;;;;;;;4997000;28;20194;-67
2021/06/16 01:47:01;;;;;;;15.48;5.95;;;;;;;;;;5006035;28;20245;-66
2021/06/16 01:49:28;;;;;;;13.25;5.55;;;;;;;;;;5002412;28;20647;-67
2021/06/16 01:51:55;;;;;;;12.20;5.15;;;;;;;;;;5006098;28;20175;-66
2021/06/16 01:54:21;;;;;;;12.77;5.60;;;;;;;;;;5003895;28;20186;-66
2021/06/16 01:56:49;;;;;;;8.20;5.15;;;;;;;;;;4999914;28;20709;-66
2021/06/16 01:59:15;;;;;;;14.27;5.75;;;;;;;;;;5004024;28;20612;-67
2021/06/16 02:01:41;;;;;;;13.45;5.53;;;;;;;;;;4998518;28;20207;-67
2021/06/16 02:04:06;;;;;;;13.00;6.20;;;;;;;;;;5005174;28;20210;-67
2021/06/16 02:06:39;;;;;;;10.35;5.90;;;;;;;;;;4999496;28;20202;-66
2021/06/16 02:09:06;;;;;;;17.70;6.63;;;;;;;;;;5002326;28;20187;-67
2021/06/16 02:11:36;;;;;;;14.57;6.18;;;;;;;;;;4995672;28;20679;-67
2021/06/16 02:14:04;;;;;;;12.00;6.40;;;;;;;;;;5004440;28;20338;-67
2021/06/16 02:16:43;;;;;;;13.05;6.47;;;;;;;;;;4995521;28;20214;-67
2021/06/16 02:19:16;;;;;;;10.23;5.97;;;;;;;;;;5005888;28;20608;-67
2021/06/16 02:21:42;;;;;;;13.35;6.05;;;;;;;;;;4998231;28;20637;-68
2021/06/16 02:24:09;;;;;;;11.73;6.53;;;;;;;;;;5003557;28;20185;-66
2021/06/16 02:26:35;;;;;;;14.63;6.80;;;;;;;;;;4996023;28;20183;-66
2021/06/16 02:29:00;;;;;;;10.85;6.97;;;;;;;;;;5006003;28;20230;-67
2021/06/16 02:31:25;;;;;;;12.85;6.85;;;;;;;;;;5005423;28;20194;-67
2021/06/16 02:33:52;;;;;;;11.52;6.20;;;;;;;;;;4997775;28;20249;-66
2021/06/16 02:36:21;;;;;;;14.32;7.03;;;;;;;;;;5004822;28;20194;-66
2021/06/16 02:38:52;;;;;;;13.10;6.47;;;;;;;;;;4995665;28;20187;-67
2021/06/16 02:41:18;;;;;;;14.38;7.07;;;;;;;;;;5000959;28;20206;-67
2021/06/16 02:43:44;;;;;;;19.30;7.18;;;;;;;;;;4994304;28;20187;-67
2021/06/16 02:46:11;;;;;;;13.05;7.22;;;;;;;;;;4998936;28;20187;-67
2021/06/16 02:48:40;;;;;;;14.25;6.95;;;;;;;;;;4997774;28;20190;-67
2021/06/16 02:51:06;;;;;;;13.88;7.03;;;;;;;;;;5001615;28;20813;-67
2021/06/16 02:53:34;;;;;;;14.52;6.95;;;;;;;;;;4997617;28;20198;-67
2021/06/16 02:56:03;;;;;;;11.55;6.55;;;;;;;;;;5003230;28;20292;-67
2021/06/16 02:58:33;;;;;;;18.23;7.85;;;;;;;;;;4999448;28;20795;-67
2021/06/16 03:01:01;;;;;;;18.15;7.80;;;;;;;;;;5003120;28;20222;-67
2021/06/16 03:03:27;;;;;;;9.45;6.70;;;;;;;;;;4989889;28;20183;-67
2021/06/16 03:05:54;;;;;;;16.30;8.15;;;;;;;;;;5000181;28;20193;-67
2021/06/16 03:08:22;;;;;;;17.88;7.35;;;;;;;;;;5009817;28;20638;-67
2021/06/16 03:10:48;;;;;;;20.27;7.50;;;;;;;;;;4993687;28;20568;-67
2021/06/16 03:13:15;;;;;;;13.82;7.60;;;;;;;;;;5000507;28;20622;-67
2021/06/16 03:15:41;;;;;;;18.35;8.55;;;;;;;;;;4992521;28;20209;-67
2021/06/16 03:18:08;;;;;;;19.40;7.65;;;;;;;;;;5002587;28;20267;-67
2021/06/16 03:20:34;;;;;;;16.60;7.78;;;;;;;;;;4997233;28;20193;-67
2021/06/16 03:23:01;;;;;;;13.15;7.57;;;;;;;;;;5004402;28;20183;-67
2021/06/16 03:25:28;;;;;;;16.48;7.63;;;;;;;;;;4996456;28;20189;-67
2021/06/16 03:27:54;;;;;;;17.10;7.65;;;;;;;;;;4999118;28;20500;-67
2021/06/16 03:30:21;;;;;;;13.18;7.88;;;;;;;;;;4996256;28;20210;-67
2021/06/16 03:32:50;;;;;;;12.52;7.93;;;;;;;;;;5001714;28;20190;-67
2021/06/16 03:35:15;;;;;;;16.35;8.05;;;;;;;;;;4989920;28;20655;-67
2021/06/16 03:37:42;;;;;;;12.55;7.00;;;;;;;;;;5005039;28;20267;-67
2021/06/16 03:40:09;;;;;;;15.60;8.10;;;;;;;;;;4997693;28;20282;-68
2021/06/16 03:42:35;;;;;;;14.05;7.82;;;;;;;;;;5001131;28;20189;-67
2021/06/16 03:45:05;;;;;;;12.75;7.13;;;;;;;;;;5003706;28;20234;-67
2021/06/16 03:47:31;;;;;;;17.38;7.65;;;;;;;;;;4993245;28;20237;-67
2021/06/16 03:49:58;;;;;;;13.82;7.25;;;;;;;;;;5006214;28;20629;-68
2021/06/16 03:52:24;;;;;;;13.23;7.97;;;;;;;;;;4991360;28;20350;-67
2021/06/16 03:54:51;;;;;;;15.77;7.93;;;;;;;;;;5008791;28;20199;-67
2021/06/16 03:57:19;;;;;;;13.98;7.90;;;;;;;;;;4995254;28;20492;-67
2021/06/16 03:59:45;;;;;;;13.55;7.65;;;;;;;;;;5008307;28;20187;-67
2021/06/16 04:02:14;;;;;;;15.98;7.35;;;;;;;;;;4995384;28;20215;-67
2021/06/16 04:04:39;;;;;;;15.95;8.23;;;;;;;;;;5003902;28;20220;-67
2021/06/16 04:07:06;;;;;;;14.05;7.63;;;;;;;;;;4993604;28;20186;-67
2021/06/16 04:09:31;;;;;;;11.40;7.43;;;;;;;;;;5004683;28;20673;-67
2021/06/16 04:11:57;;;;;;;13.68;8.40;;;;;;;;;;4990086;28;21492;-68
2021/06/16 04:14:23;;;;;;;14.27;7.38;;;;;;;;;;5005747;28;20187;-67
2021/06/16 04:16:52;;;;;;;18.00;8.65;;;;;;;;;;5003418;28;20230;-67
2021/06/16 04:19:18;;;;;;;14.85;8.02;;;;;;;;;;5001551;28;20222;-67
2021/06/16 04:21:43;;;;;;;15.13;8.63;;;;;;;;;;5009842;28;20226;-68
2021/06/16 04:24:09;;;;;;;14.73;8.00;;;;;;;;;;4998649;28;20564;-68
2021/06/16 04:26:34;;;;;;;14.77;8.10;;;;;;;;;;5008865;28;20233;-68
2021/06/16 04:28:59;;;;;;;15.93;7.90;;;;;;;;;;4999561;28;20190;-71
2021/06/16 04:31:25;;;;;;;11.32;7.65;;;;;;;;;;5008346;28;20202;-67
2021/06/16 04:33:50;;;;;;;13.70;7.43;;;;;;;;;;5001761;28;20185;-68
2021/06/16 04:36:15;;;;;;;11.65;7.38;;;;;;;;;;5009078;28;20609;-67
2021/06/16 04:38:41;;;;;;;12.32;6.50;;;;;;;;;;5001067;28;20216;-68
2021/06/16 04:41:06;;;;;;;14.02;6.55;;;;;;;;;;5004133;28;20241;-68
2021/06/16 04:43:32;;;;;;;12.52;6.50;;;;;;;;;;4999829;28;20184;-68
2021/06/16 04:45:57;;;;;;;14.75;6.40;;;;;;;;;;5008449;28;20594;-68
2021/06/16 04:48:23;;;;;;;12.73;5.60;;;;;;;;;;5003334;28;20300;-68
2021/06/16 04:50:48;;;;;;;12.50;6.20;;;;;;;;;;5003606;28;20261;-68
2021/06/16 04:53:14;;;;;;;12.40;6.38;;;;;;;;;;5003674;28;20191;-68
2021/06/16 04:55:39;;;;;;;14.65;6.63;;;;;;;;;;4992908;28;20643;-68
2021/06/16 04:58:04;;;;;;;9.77;6.32;;;;;;;;;;5005946;28;20213;-68
2021/06/16 05:00:30;;;;;;;11.73;6.32;;;;;;;;;;4997915;28;20306;-69
2021/06/16 05:02:59;;;;;;;11.80;6.85;;;;;;;;;;5005968;28;20705;-68
2021/06/16 05:05:26;;;;;;;13.43;6.28;;;;;;;;;;4995896;28;20198;-68
2021/06/16 05:07:51;;;;;;;15.98;7.07;;;;;;;;;;5008467;28;20270;-68
2021/06/16 05:10:17;;;;;;;13.15;6.55;;;;;;;;;;4997982;28;20293;-68
2021/06/16 05:12:43;;;;;;;14.43;6.72;;;;;;;;;;5006194;28;20191;-68
2021/06/16 05:15:11;;;;;;;13.80;6.50;;;;;;;;;;4995276;28;20303;-67
2021/06/16 05:17:38;;;;;;;10.30;6.97;;;;;;;;;;5004536;28;20209;-66
2021/06/16 05:20:05;;;;;;;13.20;6.82;;;;;;;;;;5003940;28;20179;-67
2021/06/16 05:22:30;;;;;;;11.27;7.07;;;;;;;;;;4996840;28;20195;-68
2021/06/16 05:24:59;;;;;;;14.60;6.65;;;;;;;;;;5005452;28;20218;-67
2021/06/16 05:27:25;;;;;;;18.90;7.07;;;;;;;;;;4999720;28;20186;-67
2021/06/16 05:29:51;;;;;;;13.27;6.40;;;;;;;;;;5006297;28;20542;-68
2021/06/16 05:32:16;;;;;;;12.00;6.90;;;;;;;;;;4996444;28;20212;-68
2021/06/16 05:34:42;;;;;;;13.82;6.63;;;;;;;;;;5005246;28;20296;-69
2021/06/16 05:37:08;;;;;;;12.27;6.00;;;;;;;;;;4997746;28;20343;-68
2021/06/16 05:39:34;;;;;;;9.45;6.32;;;;;;;;;;5003986;28;20238;-68
2021/06/16 05:41:59;;;;;;;10.50;6.75;;;;;;;;;;4998892;28;20191;-68
2021/06/16 05:44:25;;;;;;;14.18;6.57;;;;;;;;;;5003216;28;20741;-68
2021/06/16 05:46:50;;;;;;;11.25;6.32;;;;;;;;;;4999580;28;20233;-68
2021/06/16 05:49:15;;;;;;;13.23;6.38;;;;;;;;;;5001165;28;20291;-68
2021/06/16 05:51:41;;;;;;;10.82;6.60;;;;;;;;;;4307020;28;10000849;-68
2021/06/16 05:54:10;;;;;;;12.88;6.47;;;;;;;;;;4990698;28;20195;-68
2021/06/16 05:56:36;;;;;;;14.35;6.97;;;;;;;;;;5000838;28;20202;-68
2021/06/16 05:59:02;;;;;;;14.65;6.68;;;;;;;;;;4992956;28;20653;-68
2021/06/16 06:01:27;;;;;;;13.85;6.40;;;;;;;;;;4998510;28;20234;-68
2021/06/16 06:03:52;;;;;;;11.63;6.40;;;;;;;;;;4986534;28;20635;-68
2021/06/16 06:06:18;;;;;;;10.75;6.00;;;;;;;;;;4998196;28;20274;-69
2021/06/16 06:08:43;;;;;;;7.65;5.35;;;;;;;;;;4990629;28;20191;-67
2021/06/16 06:11:08;;;;;;;19.88;6.43;;;;;;;;;;4997794;28;20245;-68
2021/06/16 06:13:34;;;;;;;12.32;6.35;;;;;;;;;;4993955;28;20209;-67
2021/06/16 06:15:59;;;;;;;15.13;5.88;;;;;;;;;;5002708;28;20214;-68
2021/06/16 06:18:24;;;;;;;14.77;6.68;;;;;;;;;;4995861;28;20202;-67
2021/06/16 06:20:50;;;;;;;14.20;6.03;;;;;;;;;;5002617;28;20226;-67
2021/06/16 06:23:15;;;;;;;11.20;6.15;;;;;;;;;;5005630;28;20573;-67
2021/06/16 06:25:40;;;;;;;13.85;6.43;;;;;;;;;;4994730;28;20218;-68
2021/06/16 06:28:06;;;;;;;12.45;5.60;;;;;;;;;;5004381;28;20199;-68
2021/06/16 06:30:31;;;;;;;14.73;6.10;;;;;;;;;;4995192;28;20183;-68
2021/06/16 06:32:57;;;;;;;13.35;5.15;;;;;;;;;;5003667;28;20195;-67
2021/06/16 06:35:22;;;;;;;10.40;4.88;;;;;;;;;;4993993;28;20194;-68
2021/06/16 06:37:47;;;;;;;13.32;5.43;;;;;;;;;;5005739;28;20211;-67
2021/06/16 06:40:13;;;;;;;10.32;5.00;;;;;;;;;;4992924;28;20199;-69
2021/06/16 06:42:39;;;;;;;12.25;5.25;;;;;;;;;;5018382;28;20253;-69
2021/06/16 06:45:08;;;;;;;13.25;5.53;;;;;;;;;;4992470;28;20270;-68
2021/06/16 06:47:33;;;;;;;10.45;5.05;;;;;;;;;;5005655;28;20246;-69
2021/06/16 06:49:59;;;;;;;10.95;5.43;;;;;;;;;;4996913;28;20195;-69
2021/06/16 06:52:24;;;;;;;9.38;4.72;;;;;;;;;;4999251;28;20186;-69
2021/06/16 06:54:50;;;;;;;14.10;6.00;;;;;;;;;;5001156;28;20186;-68
2021/06/16 06:57:16;;;;;;;13.35;5.57;;;;;;;;;;5006392;28;20210;-68
2021/06/16 06:59:41;;;;;;;8.63;5.05;;;;;;;;;;5003607;28;20183;-69
2021/06/16 07:02:07;;;;;;;13.27;4.88;;;;;;;;;;4995481;28;20282;-69
2021/06/16 07:04:32;;;;;;;9.77;4.38;;;;;;;;;;5003998;28;20229;-69
2021/06/16 07:06:57;;;;;;;16.95;5.47;;;;;;;;;;4997624;28;20183;-69
2021/06/16 07:09:24;;;;;;;9.55;4.78;;;;;;;;;;5005427;28;20217;-68
2021/06/16 07:11:49;;;;;;;13.57;5.35;;;;;;;;;;4992133;28;20662;-69
2021/06/16 07:14:15;;;;;;;12.43;4.82;;;;;;;;;;5002183;28;20217;-67
2021/06/16 07:16:41;;;;;;;11.50;4.85;;;;;;;;;;5003400;28;20206;-68
2021/06/16 07:19:06;;;;;;;11.35;4.35;;;;;;;;;;5002648;28;20208;-68
2021/06/16 07:21:31;;;;;;;11.75;4.70;;;;;;;;;;4997922;28;20217;-67
2021/06/16 07:23:57;;;;;;;7.47;4.18;;;;;;;;;;5004670;28;20179;-68
2021/06/16 07:26:22;;;;;;;9.10;4.25;;;;;;;;;;5006800;28;20182;-66
2021/06/16 07:28:47;;;;;;;12.68;5.38;;;;;;;;;;4996981;28;20230;-66
2021/06/16 07:31:13;;;;;;;12.77;4.78;;;;;;;;;;5006165;28;20249;-67
2021/06/16 07:33:38;;;;;;;10.13;4.70;;;;;;;;;;4996220;28;20634;-68
2021/06/16 07:36:04;;;;;;;10.02;4.53;;;;;;;;;;5005085;28;20210;-68
2021/06/16 07:38:29;;;;;;;6.40;3.83;;;;;;;;;;4996752;28;20213;-68
2021/06/16 07:40:55;;;;;;;9.32;3.90;;;;;;;;;;5004578;28;20198;-68
2021/06/16 07:43:20;;;;;;;12.05;4.47;;;;;;;;;;4998261;28;20277;-67
2021/06/16 07:45:45;;;;;;;8.18;4.50;;;;;;;;;;5004064;28;20186;-68
2021/06/16 07:48:11;;;;;;;11.27;4.22;;;;;;;;;;4998362;28;20226;-66
2021/06/16 07:50:37;;;;;;;10.23;4.45;;;;;;;;;;5009232;28;20182;-67
2021/06/16 07:53:07;;;;;;;7.97;3.78;;;;;;;;;;5002120;28;20191;-68
2021/06/16 07:55:33;;;;;;;10.35;3.63;;;;;;;;;;5013289;28;20236;-67
2021/06/16 07:57:58;;;;;;;14.82;4.45;;;;;;;;;;4992092;28;20231;-67
2021/06/16 08:00:24;;;;;;;9.77;4.05;;;;;;;;;;5011942;28;20210;-68
2021/06/16 08:02:49;;;;;;;9.52;3.58;;;;;;;;;;5008281;28;20468;-68
2021/06/16 08:05:14;;;;;;;11.00;3.10;;;;;;;;;;4996351;28;20663;-68
2021/06/16 08:07:41;;;;;;;9.90;3.58;;;;;;;;;;5009669;28;20190;-68
2021/06/16 08:10:06;;;;;;;8.57;3.88;;;;;;;;;;4998770;28;20552;-69
2021/06/16 08:12:32;;;;;;;5.95;3.78;;;;;;;;;;5008154;28;20273;-68
2021/06/16 08:14:58;;;;;;;9.52;3.15;;;;;;;;;;4999775;28;20669;-66
2021/06/16 08:17:23;;;;;;;7.32;3.80;;;;;;;;;;5010074;28;20286;-67
2021/06/16 08:19:48;;;;;;;6.20;2.75;;;;;;;;;;4998013;28;20290;-67
2021/06/16 08:22:14;;;;;;;8.23;3.20;;;;;;;;;;5007433;28;20199;-68
2021/06/16 08:24:40;;;;;;;5.88;3.00;;;;;;;;;;4998996;28;20195;-68
2021/06/16 08:27:06;;;;;;;7.18;2.92;;;;;;;;;;5011427;28;20642;-68
2021/06/16 08:29:32;;;;;;;6.57;2.42;;;;;;;;;;4999551;28;20179;-69
2021/06/16 08:31:58;;;;;;;9.35;3.08;;;;;;;;;;5013066;28;20203;-68
2021/06/16 08:34:23;;;;;;;7.55;2.22;;;;;;;;;;5001997;28;20471;-68
2021/06/16 08:36:49;;;;;;;7.13;2.70;;;;;;;;;;5003599;28;20671;-68
2021/06/16 08:39:15;;;;;;;5.63;2.90;;;;;;;;;;5004962;28;20544;-68
2021/06/16 08:41:41;;;;;;;7.57;2.95;;;;;;;;;;5002204;28;20205;-67
2021/06/16 08:44:08;;;;;;;5.80;3.20;;;;;;;;;;5007449;28;20635;-69
2021/06/16 08:46:33;;;;;;;5.50;2.97;;;;;;;;;;5003339;28;20257;-68
2021/06/16 08:49:02;;;;;;;6.53;2.55;;;;;;;;;;5005716;28;20223;-69
2021/06/16 08:51:28;;;;;;;6.53;2.50;;;;;;;;;;4999580;28;20187;-68
2021/06/16 08:53:53;;;;;;;6.30;2.72;;;;;;;;;;5005269;28;20202;-69
2021/06/16 08:56:19;;;;;;;6.93;2.28;;;;;;;;;;4998182;28;20553;-69
2021/06/16 08:58:44;;;;;;;7.75;2.53;;;;;;;;;;5008776;28;20245;-68
2021/06/16 09:01:10;;;;;;;4.57;2.40;;;;;;;;;;4996029;28;20213;-69
2021/06/16 09:03:37;;;;;;;6.93;2.30;;;;;;;;;;5006202;28;20206;-69
2021/06/16 09:06:08;;;;;;;7.55;2.97;;;;;;;;;;5006168;28;20174;-66
2021/06/16 09:08:50;;;;;;;7.20;2.40;;;;;;;;;;4998864;28;20290;-68
2021/06/16 09:11:15;;;;;;;7.95;5.22;;;;;;;;;;5005899;28;20183;-68
2021/06/16 09:13:41;;;;;;;6.53;2.63;;;;;;;;;;4998531;28;20183;-65
2021/06/16 09:16:30;;;;;;;5.55;2.75;;;;;;;;;;5007874;28;20704;-66
2021/06/16 09:18:57;;;;;;;6.30;2.50;;;;;;;;;;4997022;28;20202;-65
2021/06/16 09:21:40;;;;;;;7.70;2.80;;;;;;;;;;5003628;28;20186;-68
2021/06/16 09:24:07;;;;;;;5.75;2.40;;;;;;;;;;4997286;28;20673;-68
2021/06/16 09:26:34;;;;;;;5.38;2.28;;;;;;;;;;5007071;28;20179;-67
2021/06/16 09:29:00;;;;;;;8.93;3.20;;;;;;;;;;4994865;28;20556;-68
2021/06/16 09:31:25;;;;;;;7.45;3.05;;;;;;;;;;5005868;28;20487;-68
2021/06/16 09:33:54;;;;;;;7.07;2.80;;;;;;;;;;4994757;28;20214;-68
2021/06/16 09:36:23;;;;;;;5.97;3.20;;;;;;;;;;5002907;28;20239;-66
2021/06/16 09:38:49;;;;;;;8.45;3.03;;;;;;;;;;4993907;28;20198;-67
2021/06/16 09:41:19;;;;;;;5.82;2.67;;;;;;;;;;5000082;28;20314;-68
2021/06/16 09:43:46;;;;;;;9.93;3.00;;;;;;;;;;4996464;28;20218;-67
2021/06/16 09:46:12;;;;;;;4.00;2.55;;;;;;;;;;5004271;28;20313;-69
2021/06/16 09:48:40;;;;;;;6.80;2.95;;;;;;;;;;4995795;28;20646;-66
2021/06/16 09:51:27;;;;;;;5.25;2.97;;;;;;;;;;5003907;28;20490;-69
2021/06/16 09:54:01;;;;;;;6.03;3.08;;;;;;;;;;4996659;28;20191;-67
2021/06/16 09:56:29;;;;;;;7.18;3.10;;;;;;;;;;5001961;28;20203;-67
2021/06/16 09:58:55;;;;;;;8.45;3.03;;;;;;;;;;4999512;28;20194;-67
2021/06/16 10:01:47;;;;;;;8.30;3.05;;;;;;;;;;4997292;28;20207;-68
2021/06/16 10:04:31;;;;;;;8.57;3.05;;;;;;;;;;4997429;28;20194;-69
2021/06/16 10:07:09;;;;;;;8.65;2.85;;;;;;;;;;5004275;28;20191;-69
2021/06/16 10:09:35;;;;;;;5.90;2.90;;;;;;;;;;4995739;28;20630;-67
2021/06/16 10:12:01;;;;;;;7.45;2.97;;;;;;;;;;5007328;28;20250;-69
2021/06/16 10:14:26;;;;;;;8.70;3.15;;;;;;;;;;5008749;28;20186;-69
2021/06/16 10:16:54;;;;;;;6.50;2.60;;;;;;;;;;4997433;28;20210;-67
2021/06/16 10:19:20;;;;;;;5.65;2.90;;;;;;;;;;4999761;28;20210;-69
2021/06/16 10:21:45;;;;;;;8.75;3.50;;;;;;;;;;4998943;28;20183;-68
2021/06/16 10:24:10;;;;;;;7.50;3.30;;;;;;;;;;5002076;28;20208;-70
2021/06/16 10:26:36;;;;;;;4.97;2.70;;;;;;;;;;4996845;28;20197;-69
2021/06/16 10:29:04;;;;;;;9.35;3.78;;;;;;;;;;5006001;28;20687;-69
2021/06/16 10:31:35;;;;;;;4.68;2.92;;;;;;;;;;4994794;28;20186;-70
2021/06/16 10:34:01;;;;;;;5.25;2.78;;;;;;;;;;5004369;28;20689;-70
2021/06/16 10:36:27;;;;;;;7.30;3.20;;;;;;;;;;4998508;28;20238;-67
2021/06/16 10:38:59;;;;;;;6.13;3.40;;;;;;;;;;5003421;28;20187;-67
2021/06/16 10:41:46;;;;;;;6.55;3.20;;;;;;;;;;4995871;28;20284;-69
2021/06/16 10:44:14;;;;;;;5.40;3.33;;;;;;;;;;5006259;28;20653;-67
2021/06/16 10:47:01;;;;;;;6.78;3.10;;;;;;;;;;4996875;28;20305;-69
2021/06/16 10:49:42;;;;;;;6.63;3.40;;;;;;;;;;5004350;28;20215;-69
2021/06/16 10:52:12;;;;;;;6.47;3.58;;;;;;;;;;4994808;28;20244;-68
2021/06/16 10:54:38;;;;;;;7.75;3.70;;;;;;;;;;5004757;28;20182;-70
2021/06/16 10:57:04;;;;;;;13.63;3.90;;;;;;;;;;4995840;28;20211;-70
2021/06/16 10:59:42;;;;;;;7.63;3.13;;;;;;;;;;5002813;28;20183;-69
2021/06/16 11:02:07;;;;;;;7.72;3.22;;;;;;;;;;5003666;28;20210;-70
2021/06/16 11:04:33;;;;;;;11.00;3.17;;;;;;;;;;4994320;28;20197;-69
2021/06/16 11:06:58;;;;;;;6.82;3.22;;;;;;;;;;5002053;28;20646;-67
2021/06/16 11:09:48;;;;;;;6.20;3.08;;;;;;;;;;4991894;28;20245;-67
2021/06/16 11:12:14;;;;;;;8.07;3.33;;;;;;;;;;5001017;28;20209;-66
2021/06/16 11:14:44;;;;;;;9.43;3.90;;;;;;;;;;4992810;28;20187;-68
2021/06/16 11:17:31;;;;;;;8.05;3.90;;;;;;;;;;5002591;28;20217;-68
2021/06/16 11:19:56;;;;;;;9.35;4.30;;;;;;;;;;4989522;28;20190;-67
2021/06/16 11:22:24;;;;;;;12.27;3.95;;;;;;;;;;4999572;28;20190;-68
2021/06/16 11:25:10;;;;;;;7.32;3.40;;;;;;;;;;4989422;28;20632;-67
2021/06/16 11:27:54;;;;;;;3.92;2.92;;;;;;;;;;5001818;28;20642;-70
2021/06/16 11:31:02;;;;;;;9.65;3.60;;;;;;;;;;4994357;28;20552;-69
2021/06/16 11:33:33;;;;;;;7.35;3.42;;;;;;;;;;4999611;28;20211;-68
2021/06/16 11:36:08;;;;;;;5.28;3.35;;;;;;;;;;4992594;28;20654;-70
2021/06/16 11:38:37;;;;;;;6.50;3.13;;;;;;;;;;5002953;28;20193;-66
2021/06/16 11:41:14;;;;;;;7.00;3.47;;;;;;;;;;4993403;28;20191;-67
2021/06/16 11:43:40;;;;;;;8.38;3.92;;;;;;;;;;5003069;28;20243;-68
2021/06/16 11:46:14;;;;;;;7.93;3.17;;;;;;;;;;4993701;28;20194;-70
2021/06/16 11:48:41;;;;;;;9.35;3.75;;;;;;;;;;5005158;28;20212;-70
2021/06/16 11:51:08;;;;;;;7.40;3.53;;;;;;;;;;4992816;28;20562;-69
2021/06/16 11:53:35;;;;;;;8.32;3.92;;;;;;;;;;5001236;28;20197;-70
2021/06/16 11:56:03;;;;;;;5.63;3.47;;;;;;;;;;4993697;28;20273;-68
2021/06/16 11:58:34;;;;;;;5.40;3.30;;;;;;;;;;5004670;28;20276;-68
2021/06/16 12:01:12;;;;;;;5.88;3.03;;;;;;;;;;4989902;28;20230;-70
2021/06/16 12:03:40;;;;;;;5.65;3.50;;;;;;;;;;5001689;28;20298;-68
2021/06/16 12:06:08;;;;;;;5.07;3.33;;;;;;;;;;4994691;28;20195;-69
2021/06/16 12:08:35;;;;;;;4.28;2.95;;;;;;;;;;5001607;28;20713;-68
2021/06/16 12:11:02;;;;;;;7.82;3.55;;;;;;;;;;4993220;28;20659;-68
2021/06/16 12:13:28;;;;;;;7.10;3.70;;;;;;;;;;4998218;28;20419;-68
2021/06/16 12:15:53;;;;;;;8.13;3.42;;;;;;;;;;5001699;28;20209;-69
2021/06/16 12:18:19;;;;;;;7.65;4.07;;;;;;;;;;4994192;28;20202;-68
2021/06/16 12:20:53;;;;;;;6.00;3.60;;;;;;;;;;5001638;28;20190;-68
2021/06/16 12:23:33;;;;;;;7.95;3.95;;;;;;;;;;4994275;28;20273;-68
2021/06/16 12:26:07;;;;;;;7.15;3.65;;;;;;;;;;4998548;28;20190;-66
2021/06/16 12:28:35;;;;;;;7.15;4.00;;;;;;;;;;4992166;28;20199;-66
2021/06/16 12:31:02;;;;;;;8.60;3.45;;;;;;;;;;5004927;28;20187;-66
2021/06/16 12:36:33;;;;;;;8.35;3.45;;;;;;;;;;5007235;28;20217;-69
2021/06/16 12:39:16;;;;;;;6.20;3.47;;;;;;;;;;4992941;28;20795;-70
2021/06/16 12:41:50;;;;;;;6.85;3.85;;;;;;;;;;5008373;28;20472;-68
2021/06/16 12:44:24;;;;;;;5.00;3.63;;;;;;;;;;4998988;28;20187;-67
2021/06/16 12:46:58;;;;;;;8.52;3.78;;;;;;;;;;5005868;28;20607;-67
2021/06/16 12:49:29;;;;;;;5.55;3.85;;;;;;;;;;4994735;28;20213;-67
2021/06/16 12:51:59;;;;;;;5.35;3.55;;;;;;;;;;5007273;28;20286;-70
2021/06/16 12:54:39;;;;;;;4.97;3.13;;;;;;;;;;4999243;28;20191;-69
2021/06/16 12:57:22;;;;;;;6.72;2.83;;;;;;;;;;5001813;28;20218;-68
2021/06/16 12:59:50;;;;;;;7.18;4.20;;;;;;;;;;5000302;28;20187;-70
2021/06/16 13:02:30;;;;;;;5.13;3.78;;;;;;;;;;5002510;28;20219;-70
2021/06/16 13:04:59;;;;;;;6.35;3.50;;;;;;;;;;4995145;28;20194;-70
2021/06/16 13:07:43;;;;;;;7.65;3.92;;;;;;;;;;5002727;28;20261;-69
2021/06/16 13:10:12;;;;;;;7.32;3.78;;;;;;;;;;4994421;28;20211;-68
2021/06/16 13:12:38;;;;;;;7.95;4.20;;;;;;;;;;5004989;28;20205;-68
2021/06/16 13:15:07;;;;;;;5.82;3.80;;;;;;;;;;4999182;28;20195;-69
2021/06/16 13:17:50;;;;;;;5.82;4.00;;;;;;;;;;5003274;28;20239;-68
2021/06/16 13:20:40;;;;;;;6.45;4.20;;;;;;;;;;4995958;28;20190;-67
2021/06/16 13:23:17;;;;;;;5.50;4.47;;;;;;;;;;5002736;28;20587;-66
2021/06/16 13:25:44;;;;;;;4.63;4.22;;;;;;;;;;4994026;28;20653;-66
2021/06/16 13:28:21;;;;;;;7.65;4.22;;;;;;;;;;5003428;28;20206;-67
2021/06/16 13:30:47;;;;;;;5.47;4.15;;;;;;;;;;4996202;28;20378;-68
2021/06/16 13:33:13;;;;;;;4.13;3.70;;;;;;;;;;5004862;28;20374;-69
2021/06/16 13:35:39;;;;;;;5.75;4.10;;;;;;;;;;4995016;28;20627;-66
2021/06/16 13:38:05;;;;;;;7.45;4.63;;;;;;;;;;5000388;28;20260;-67
2021/06/16 13:40:31;;;;;;;5.65;4.38;;;;;;;;;;4992806;28;20191;-68
2021/06/16 13:42:59;;;;;;;6.15;4.50;;;;;;;;;;4999984;28;20217;-70
2021/06/16 13:45:26;;;;;;;7.25;4.28;;;;;;;;;;4998622;28;20229;-69
2021/06/16 13:47:55;;;;;;;10.75;5.22;;;;;;;;;;4991575;28;20277;-69
2021/06/16 13:50:21;;;;;;;9.07;4.80;;;;;;;;;;4995704;28;20674;-69
2021/06/16 13:52:47;;;;;;;9.65;4.85;;;;;;;;;;4992146;28;20234;-70
2021/06/16 13:55:13;;;;;;;7.18;4.70;;;;;;;;;;4998681;28;20855;-70
2021/06/16 13:57:38;;;;;;;6.90;4.65;;;;;;;;;;4995801;28;20213;-71
2021/06/16 14:00:07;;;;;;;4.80;4.38;;;;;;;;;;5003782;28;20198;-70
2021/06/16 14:02:34;;;;;;;5.40;4.50;;;;;;;;;;4997765;28;20420;-69
2021/06/16 14:05:00;;;;;;;5.95;4.85;;;;;;;;;;4999890;28;20179;-70
2021/06/16 14:07:25;;;;;;;5.57;4.40;;;;;;;;;;4995947;28;20232;-70
2021/06/16 14:09:51;;;;;;;6.82;4.88;;;;;;;;;;4996610;28;20185;-70
2021/06/16 14:12:18;;;;;;;6.15;4.50;;;;;;;;;;4989717;28;20851;-71
2021/06/16 14:14:46;;;;;;;9.45;5.22;;;;;;;;;;5001401;28;20189;-71
2021/06/16 14:17:11;;;;;;;7.22;4.35;;;;;;;;;;4989070;28;20202;-70
2021/06/16 14:19:36;;;;;;;7.45;4.80;;;;;;;;;;5002795;28;20189;-70
2021/06/16 14:22:02;;;;;;;7.60;4.80;;;;;;;;;;4998776;28;20582;-69
2021/06/16 14:24:27;;;;;;;5.53;4.22;;;;;;;;;;4999788;28;20642;-70
2021/06/16 14:26:53;;;;;;;10.48;5.05;;;;;;;;;;5003491;28;20548;-69
2021/06/16 14:29:18;;;;;;;8.00;4.57;;;;;;;;;;4995693;28;20194;-71
2021/06/16 14:31:44;;;;;;;7.95;4.53;;;;;;;;;;5002149;28;20202;-69
2021/06/16 14:34:09;;;;;;;5.65;4.47;;;;;;;;;;4992000;28;20198;-70
2021/06/16 14:36:34;;;;;;;5.72;4.55;;;;;;;;;;5003079;28;20271;-69
2021/06/16 14:39:00;;;;;;;6.50;4.32;;;;;;;;;;4991973;28;20210;-69
2021/06/16 14:41:25;;;;;;;6.35;4.75;;;;;;;;;;5003769;28;20673;-69
2021/06/16 14:43:50;;;;;;;5.78;5.00;;;;;;;;;;4993343;28;20252;-68